createdAt,value
2018-07-15T00:01:12.667Z,14.56
2018-07-15T00:03:42.204Z,14.65
2018-07-15T00:06:11.722Z,14.70
2018-07-15T00:08:41.289Z,14.71
2018-07-15T00:11:10.911Z,14.73
2018-07-15T00:13:40.501Z,14.66
2018-07-15T00:16:10.248Z,14.63
2018-07-15T00:18:40.117Z,14.59
2018-07-15T00:21:10.185Z,14.55
2018-07-15T00:23:39.958Z,14.51
2018-07-15T00:26:09.768Z,14.50
2018-07-15T00:28:40.231Z,14.51
2018-07-15T00:31:09.870Z,14.49
2018-07-15T00:33:39.541Z,14.42
2018-07-15T00:36:08.952Z,14.26
2018-07-15T00:38:38.868Z,14.27
2018-07-15T00:41:08.987Z,14.37
2018-07-15T00:43:38.838Z,14.33
2018-07-15T00:46:08.554Z,14.24
2018-07-15T00:48:38.134Z,14.26
2018-07-15T00:51:08.024Z,14.20
2018-07-15T00:53:37.739Z,14.20
2018-07-15T00:56:08.065Z,14.20
2018-07-15T00:58:38.063Z,14.19
2018-07-15T01:01:07.780Z,14.26
2018-07-15T01:03:38.003Z,14.34
2018-07-15T01:06:07.909Z,14.36
2018-07-15T01:08:37.658Z,14.34
2018-07-15T01:11:07.206Z,14.29
2018-07-15T01:13:37.761Z,14.26
2018-07-15T01:16:07.317Z,14.21
2018-07-15T01:18:36.973Z,14.16
2018-07-15T01:21:08.020Z,14.10
2018-07-15T01:23:38.341Z,14.06
2018-07-15T01:26:08.176Z,14.03
2018-07-15T01:28:37.973Z,13.98
2018-07-15T01:31:07.692Z,13.92
2018-07-15T01:33:37.496Z,13.87
2018-07-15T01:36:07.221Z,13.87
2018-07-15T01:38:36.912Z,13.80
2018-07-15T01:41:07.784Z,13.79
2018-07-15T01:43:37.495Z,13.76
2018-07-15T01:46:07.373Z,13.76
2018-07-15T01:48:37.790Z,13.72
2018-07-15T01:51:07.438Z,13.56
2018-07-15T01:53:37.314Z,13.45
2018-07-15T01:56:07.167Z,13.34
2018-07-15T01:58:36.974Z,13.37
2018-07-15T02:01:06.580Z,13.37
2018-07-15T02:03:36.372Z,13.39
2018-07-15T02:06:06.076Z,13.33
2018-07-15T02:08:35.789Z,13.31
2018-07-15T02:11:06.236Z,13.27
2018-07-15T02:13:35.944Z,13.43
2018-07-15T02:16:05.642Z,13.54
2018-07-15T02:18:35.762Z,13.56
2018-07-15T02:21:05.689Z,13.63
2018-07-15T02:23:35.812Z,13.66
2018-07-15T02:26:07.109Z,13.71
2018-07-15T02:28:37.274Z,13.68
2018-07-15T02:31:07.078Z,13.66
2018-07-15T02:33:37.020Z,13.61
2018-07-15T02:36:07.242Z,13.55
2018-07-15T02:38:36.998Z,13.55
2018-07-15T02:41:06.750Z,13.51
2018-07-15T02:43:36.772Z,13.51
2018-07-15T02:46:06.810Z,13.49
2018-07-15T02:48:36.636Z,13.40
2018-07-15T02:51:06.491Z,13.38
2018-07-15T02:53:36.631Z,13.35
2018-07-15T02:56:06.833Z,13.37
2018-07-15T02:58:36.482Z,13.35
2018-07-15T03:01:06.249Z,13.34
2018-07-15T03:03:36.123Z,13.30
2018-07-15T03:06:06.043Z,13.25
2018-07-15T03:08:36.033Z,13.23
2018-07-15T03:11:06.950Z,13.18
2018-07-15T03:13:36.961Z,13.14
2018-07-15T03:16:06.596Z,13.15
2018-07-15T03:18:39.397Z,13.12
2018-07-15T03:21:09.072Z,13.09
2018-07-15T03:23:38.878Z,13.15
2018-07-15T03:26:08.511Z,13.18
2018-07-15T03:28:38.137Z,13.16
2018-07-15T03:31:08.151Z,13.16
2018-07-15T03:33:39.758Z,13.12
2018-07-15T03:36:09.498Z,13.12
2018-07-15T03:38:39.105Z,13.20
2018-07-15T03:41:09.946Z,13.19
2018-07-15T03:43:39.527Z,13.21
2018-07-15T03:46:09.337Z,13.30
2018-07-15T03:48:39.069Z,13.36
2018-07-15T03:51:08.908Z,13.43
2018-07-15T03:53:38.565Z,13.44
2018-07-15T03:56:08.167Z,13.44
2018-07-15T03:58:38.287Z,13.45
2018-07-15T04:01:08.220Z,13.43
2018-07-15T04:03:38.545Z,13.50
2018-07-15T04:06:08.385Z,13.57
2018-07-15T04:08:38.298Z,13.57
2018-07-15T04:11:08.808Z,13.61
2018-07-15T04:13:38.400Z,13.64
2018-07-15T04:16:08.370Z,13.66
2018-07-15T04:18:38.311Z,13.66
2018-07-15T04:21:07.951Z,13.68
2018-07-15T04:23:37.506Z,13.67
2018-07-15T04:26:07.141Z,13.64
2018-07-15T04:28:36.745Z,13.66
2018-07-15T04:31:06.417Z,13.69
2018-07-15T04:33:36.304Z,13.70
2018-07-15T04:36:06.293Z,13.77
2018-07-15T04:38:35.932Z,13.81
2018-07-15T04:41:06.629Z,13.86
2018-07-15T04:43:36.500Z,13.94
2018-07-15T04:46:08.334Z,14.05
2018-07-15T04:48:38.019Z,14.11
2018-07-15T04:51:07.950Z,14.19
2018-07-15T04:53:38.193Z,14.29
2018-07-15T04:56:08.280Z,14.37
2018-07-15T04:58:38.312Z,14.49
2018-07-15T05:01:08.141Z,14.57
2018-07-15T05:03:39.155Z,14.64
2018-07-15T05:06:08.960Z,14.70
2018-07-15T05:08:38.944Z,14.75
2018-07-15T05:11:08.624Z,14.92
2018-07-15T05:13:38.920Z,15.07
2018-07-15T05:16:09.454Z,15.14
2018-07-15T05:18:39.323Z,15.27
2018-07-15T05:21:09.294Z,15.32
2018-07-15T05:23:39.495Z,15.34
2018-07-15T05:26:09.842Z,15.48
2018-07-15T05:28:39.992Z,15.59
2018-07-15T05:31:11.007Z,15.67
2018-07-15T05:33:40.950Z,15.91
2018-07-15T05:36:10.747Z,16.16
2018-07-15T05:38:41.637Z,16.30
2018-07-15T05:41:11.614Z,16.38
2018-07-15T05:43:41.334Z,16.36
2018-07-15T05:46:11.130Z,16.40
2018-07-15T05:48:41.026Z,16.32
2018-07-15T05:51:11.028Z,16.34
2018-07-15T05:53:41.151Z,16.46
2018-07-15T05:56:10.778Z,16.56
2018-07-15T05:58:40.470Z,16.62
2018-07-15T06:01:10.409Z,16.66
2018-07-15T06:03:40.022Z,16.64
2018-07-15T06:06:09.612Z,16.85
2018-07-15T06:08:39.616Z,16.97
2018-07-15T06:11:09.175Z,16.87
2018-07-15T06:13:38.737Z,16.92
2018-07-15T06:16:08.517Z,16.99
2018-07-15T06:18:38.484Z,17.09
2018-07-15T06:21:08.085Z,17.18
2018-07-15T06:23:37.996Z,17.21
2018-07-15T06:26:07.849Z,17.39
2018-07-15T06:28:37.514Z,17.64
2018-07-15T06:31:07.761Z,17.84
2018-07-15T06:33:37.750Z,18.09
2018-07-15T06:36:07.521Z,18.35
2018-07-15T06:38:37.994Z,18.42
2018-07-15T06:41:07.798Z,18.52
2018-07-15T06:43:38.055Z,18.70
2018-07-15T06:46:08.247Z,18.77
2018-07-15T06:48:39.184Z,18.54
2018-07-15T06:51:09.450Z,18.46
2018-07-15T06:53:39.623Z,18.48
2018-07-15T06:56:09.542Z,18.76
2018-07-15T06:58:39.878Z,18.89
2018-07-15T07:01:09.565Z,18.78
2018-07-15T07:03:39.394Z,18.84
2018-07-15T07:06:09.315Z,18.93
2018-07-15T07:08:39.660Z,18.85
2018-07-15T07:11:10.554Z,18.97
2018-07-15T07:13:46.413Z,19.13
2018-07-15T07:16:16.231Z,19.39
2018-07-15T07:18:45.835Z,19.58
2018-07-15T07:21:15.296Z,19.46
2018-07-15T07:23:45.110Z,19.41
2018-07-15T07:26:14.735Z,19.41
2018-07-15T07:28:46.248Z,19.33
2018-07-15T07:31:15.429Z,19.52
2018-07-15T07:33:44.758Z,19.61
2018-07-15T07:36:14.616Z,19.49
2018-07-15T07:38:43.858Z,19.29
2018-07-15T07:41:13.559Z,19.40
2018-07-15T07:43:43.283Z,19.86
2018-07-15T07:46:12.785Z,20.11
2018-07-15T07:48:42.297Z,20.28
2018-07-15T07:51:11.871Z,20.47
2018-07-15T07:53:41.447Z,20.56
2018-07-15T07:56:10.753Z,20.69
2018-07-15T07:58:41.921Z,20.62
2018-07-15T08:01:11.258Z,20.85
2018-07-15T08:03:40.727Z,21.06
2018-07-15T08:06:10.315Z,20.81
2018-07-15T08:08:39.753Z,20.25
2018-07-15T08:11:09.542Z,20.28
2018-07-15T08:13:40.321Z,20.62
2018-07-15T08:16:10.105Z,20.52
2018-07-15T08:18:39.708Z,20.38
2018-07-15T08:21:09.684Z,20.21
2018-07-15T08:23:39.361Z,20.32
2018-07-15T08:26:09.069Z,20.50
2018-07-15T08:28:38.627Z,20.85
2018-07-15T08:31:14.301Z,21.22
2018-07-15T08:33:44.546Z,21.29
2018-07-15T08:36:15.981Z,21.62
2018-07-15T08:38:45.362Z,21.73
2018-07-15T08:41:15.009Z,21.64
2018-07-15T08:43:44.297Z,21.65
2018-07-15T08:46:15.738Z,21.61
2018-07-15T08:48:45.023Z,21.30
2018-07-15T08:51:14.409Z,21.06
2018-07-15T08:53:43.667Z,21.08
2018-07-15T08:56:13.378Z,21.49
2018-07-15T08:58:42.944Z,21.64
2018-07-15T09:01:13.105Z,21.88
2018-07-15T09:03:42.643Z,21.93
2018-07-15T09:06:12.352Z,21.71
2018-07-15T09:08:42.440Z,21.50
2018-07-15T09:11:12.134Z,21.94
2018-07-15T09:13:42.104Z,22.36
2018-07-15T09:16:11.880Z,22.82
2018-07-15T09:18:42.020Z,22.92
2018-07-15T09:21:11.973Z,22.60
2018-07-15T09:23:43.156Z,22.43
2018-07-15T09:26:13.133Z,22.68
2018-07-15T09:28:42.726Z,23.02
2018-07-15T09:31:12.155Z,22.73
2018-07-15T09:33:42.146Z,22.50
2018-07-15T09:36:13.247Z,22.56
2018-07-15T09:38:43.446Z,22.25
2018-07-15T09:41:12.875Z,21.79
2018-07-15T09:43:42.997Z,22.13
2018-07-15T09:46:12.218Z,22.96
2018-07-15T09:48:41.471Z,23.28
2018-07-15T09:51:11.872Z,24.35
2018-07-15T09:53:41.529Z,23.72
2018-07-15T09:56:11.014Z,23.79
2018-07-15T09:58:41.642Z,24.18
2018-07-15T10:01:11.198Z,24.34
2018-07-15T10:03:41.242Z,24.33
2018-07-15T10:06:11.104Z,23.48
2018-07-15T10:08:40.777Z,24.58
2018-07-15T10:11:10.779Z,25.70
2018-07-15T10:13:42.408Z,25.82
2018-07-15T10:16:12.098Z,25.62
2018-07-15T10:18:41.573Z,25.87
2018-07-15T10:21:18.281Z,25.95
2018-07-15T10:23:47.567Z,25.14
2018-07-15T10:26:17.056Z,24.98
2018-07-15T10:28:46.510Z,24.58
2018-07-15T10:31:15.966Z,24.11
2018-07-15T10:33:46.666Z,25.54
2018-07-15T10:36:16.527Z,27.29
2018-07-15T10:38:45.874Z,27.65
2018-07-15T10:41:15.264Z,28.19
2018-07-15T10:43:45.463Z,28.24
2018-07-15T10:46:15.162Z,28.26
2018-07-15T10:48:44.509Z,27.10
2018-07-15T10:51:14.565Z,26.58
2018-07-15T10:53:45.181Z,26.73
2018-07-15T10:56:14.613Z,28.29
2018-07-15T10:58:45.034Z,29.28
2018-07-15T11:01:14.761Z,30.01
2018-07-15T11:03:44.148Z,30.30
2018-07-15T11:06:15.267Z,31.37
2018-07-15T11:08:44.588Z,29.78
2018-07-15T11:11:15.962Z,28.78
2018-07-15T11:13:45.774Z,28.67
2018-07-15T11:16:15.070Z,28.74
2018-07-15T11:18:44.445Z,30.23
2018-07-15T11:21:13.757Z,30.80
2018-07-15T11:23:43.486Z,29.98
2018-07-15T11:26:13.291Z,27.76
2018-07-15T11:28:42.816Z,27.96
2018-07-15T11:31:12.282Z,27.89
2018-07-15T11:33:41.972Z,27.75
2018-07-15T11:36:11.417Z,28.94
2018-07-15T11:38:41.001Z,28.83
2018-07-15T11:41:11.614Z,28.98
2018-07-15T11:43:40.881Z,29.50
2018-07-15T11:46:10.515Z,29.42
2018-07-15T11:48:39.898Z,27.88
2018-07-15T11:51:09.828Z,27.21
2018-07-15T11:53:39.458Z,26.19
2018-07-15T11:56:09.257Z,25.37
2018-07-15T11:58:38.933Z,25.01
2018-07-15T12:01:08.696Z,25.18
2018-07-15T12:03:38.797Z,24.75
2018-07-15T12:06:08.529Z,24.47
2018-07-15T12:08:38.390Z,24.29
2018-07-15T12:11:09.133Z,23.83
2018-07-15T12:13:39.123Z,23.96
2018-07-15T12:16:08.681Z,24.31
2018-07-15T12:18:39.414Z,24.50
2018-07-15T12:21:09.068Z,25.01
2018-07-15T12:23:38.698Z,26.49
2018-07-15T12:26:09.630Z,28.40
2018-07-15T12:28:39.529Z,29.26
2018-07-15T12:31:09.122Z,29.55
2018-07-15T12:33:39.838Z,29.86
2018-07-15T12:36:09.918Z,30.48
2018-07-15T12:38:39.518Z,30.02
2018-07-15T12:41:09.709Z,28.88
2018-07-15T12:43:40.007Z,30.08
2018-07-15T12:46:09.790Z,30.44
2018-07-15T12:48:40.910Z,28.73
2018-07-15T12:51:11.044Z,28.32
2018-07-15T12:53:42.380Z,28.98
2018-07-15T12:56:13.255Z,28.41
2018-07-15T12:58:44.166Z,27.28
2018-07-15T13:01:13.699Z,27.20
2018-07-15T13:03:43.087Z,26.55
2018-07-15T13:06:13.827Z,26.49
2018-07-15T13:08:44.521Z,26.64
2018-07-15T13:11:14.210Z,27.15
2018-07-15T13:13:43.965Z,27.81
2018-07-15T13:16:13.391Z,30.01
2018-07-15T13:18:43.116Z,30.48
2018-07-15T13:21:12.713Z,31.53
2018-07-15T13:23:42.605Z,29.71
2018-07-15T13:26:14.070Z,28.87
2018-07-15T13:28:43.769Z,28.51
2018-07-15T13:31:13.371Z,27.69
2018-07-15T13:33:43.415Z,26.80
2018-07-15T13:36:13.237Z,26.67
2018-07-15T13:38:42.680Z,26.62
2018-07-15T13:41:12.065Z,26.81
2018-07-15T13:43:42.046Z,27.77
2018-07-15T13:46:11.726Z,28.28
2018-07-15T13:48:43.026Z,28.20
2018-07-15T13:51:12.404Z,27.34
2018-07-15T13:53:41.811Z,27.82
2018-07-15T13:56:12.898Z,29.08
2018-07-15T13:58:44.060Z,29.89
2018-07-15T14:01:13.705Z,28.96
2018-07-15T14:03:43.342Z,27.97
2018-07-15T14:06:16.101Z,27.45
2018-07-15T14:08:46.846Z,28.22
2018-07-15T14:11:18.032Z,28.96
2018-07-15T14:13:48.445Z,29.53
2018-07-15T14:16:19.528Z,28.48
2018-07-15T14:18:49.835Z,30.42
2018-07-15T14:21:20.353Z,30.65
2018-07-15T14:23:50.486Z,31.04
2018-07-15T14:26:20.535Z,30.97
2018-07-15T14:28:50.864Z,31.13
2018-07-15T14:31:24.687Z,31.31
2018-07-15T14:33:54.550Z,31.21
2018-07-15T14:36:25.620Z,31.04
2018-07-15T14:38:58.780Z,30.91
2018-07-15T14:41:29.542Z,31.18
2018-07-15T14:44:02.441Z,31.71
2018-07-15T14:46:33.255Z,32.04
2018-07-15T14:49:03.771Z,31.67
2018-07-15T14:51:34.195Z,31.68
2018-07-15T14:54:04.925Z,30.43
2018-07-15T14:56:37.285Z,30.94
2018-07-15T14:59:07.400Z,31.55
2018-07-15T15:01:39.442Z,31.20
2018-07-15T15:04:10.986Z,29.51
2018-07-15T15:06:40.798Z,28.14
2018-07-15T15:09:10.230Z,27.55
2018-07-15T15:11:40.009Z,28.14
2018-07-15T15:14:10.182Z,27.73
2018-07-15T15:16:40.254Z,27.62
2018-07-15T15:19:10.563Z,29.22
2018-07-15T15:21:40.363Z,29.45
2018-07-15T15:24:10.188Z,28.92
2018-07-15T15:26:41.280Z,30.89
2018-07-15T15:29:11.237Z,31.40
2018-07-15T15:31:40.685Z,30.56
2018-07-15T15:34:11.246Z,30.80
2018-07-15T15:36:41.195Z,31.26
2018-07-15T15:39:10.976Z,31.58
2018-07-15T15:41:40.492Z,32.29
2018-07-15T15:44:10.318Z,32.61
2018-07-15T15:46:39.893Z,32.61
2018-07-15T15:49:09.634Z,32.61
2018-07-15T15:51:39.875Z,32.45
2018-07-15T15:54:10.794Z,31.33
2018-07-15T15:56:40.457Z,30.11
2018-07-15T15:59:12.162Z,31.47
2018-07-15T16:01:41.521Z,31.15
2018-07-15T16:04:11.322Z,31.82
2018-07-15T16:06:42.037Z,31.98
2018-07-15T16:09:11.545Z,31.11
2018-07-15T16:11:40.977Z,30.02
2018-07-15T16:14:10.618Z,30.46
2018-07-15T16:16:40.664Z,31.39
2018-07-15T16:19:10.368Z,30.89
2018-07-15T16:21:41.120Z,30.58
2018-07-15T16:24:11.082Z,30.85
2018-07-15T16:26:40.743Z,30.27
2018-07-15T16:29:11.022Z,29.92
2018-07-15T16:31:40.878Z,29.84
2018-07-15T16:34:10.967Z,30.62
2018-07-15T16:36:40.567Z,29.92
2018-07-15T16:39:11.984Z,29.24
2018-07-15T16:41:43.090Z,28.66
2018-07-15T16:44:12.682Z,29.11
2018-07-15T16:46:42.387Z,29.18
2018-07-15T16:49:12.503Z,28.64
2018-07-15T16:51:41.991Z,29.00
2018-07-15T16:54:11.562Z,28.59
2018-07-15T16:56:41.899Z,28.34
2018-07-15T16:59:12.187Z,28.24
2018-07-15T17:01:41.840Z,27.89
2018-07-15T17:04:12.336Z,27.32
2018-07-15T17:06:47.814Z,27.98
2018-07-15T17:09:17.784Z,28.58
2018-07-15T17:11:47.756Z,28.87
2018-07-15T17:14:17.222Z,28.50
2018-07-15T17:16:47.339Z,27.93
2018-07-15T17:19:16.758Z,26.87
2018-07-15T17:21:47.341Z,26.94
2018-07-15T17:24:16.956Z,26.49
2018-07-15T17:26:46.452Z,25.90
2018-07-15T17:29:15.998Z,25.24
2018-07-15T17:31:45.473Z,25.05
2018-07-15T17:34:15.996Z,25.13
2018-07-15T17:36:45.347Z,24.98
2018-07-15T17:39:16.194Z,24.84
2018-07-15T17:41:45.853Z,24.86
2018-07-15T17:44:16.843Z,24.94
2018-07-15T17:46:46.836Z,24.85
2018-07-15T17:49:22.024Z,24.65
2018-07-15T17:51:51.983Z,24.66
2018-07-15T17:54:21.500Z,24.87
2018-07-15T17:56:50.947Z,25.38
2018-07-15T17:59:20.989Z,26.07
2018-07-15T18:01:51.120Z,26.79
2018-07-15T18:04:24.415Z,27.15
2018-07-15T18:06:53.929Z,27.54
2018-07-15T18:09:23.865Z,27.54
2018-07-15T18:11:53.609Z,27.80
2018-07-15T18:14:23.297Z,27.35
2018-07-15T18:16:53.377Z,27.34
2018-07-15T18:19:25.448Z,27.35
2018-07-15T18:21:58.732Z,27.47
2018-07-15T18:24:28.797Z,27.51
2018-07-15T18:26:58.742Z,27.20
2018-07-15T18:29:28.760Z,27.19
2018-07-15T18:32:01.596Z,27.43
2018-07-15T18:34:31.971Z,27.29
2018-07-15T18:37:03.146Z,27.33
2018-07-15T18:39:35.705Z,27.08
2018-07-15T18:42:06.982Z,27.06
2018-07-15T18:44:37.219Z,26.96
2018-07-15T18:47:07.273Z,27.50
2018-07-15T18:49:37.564Z,27.55
2018-07-15T18:52:07.358Z,27.36
2018-07-15T18:54:37.538Z,27.17
2018-07-15T18:57:07.564Z,26.95
2018-07-15T18:59:38.812Z,27.14
2018-07-15T19:02:08.607Z,26.98
2018-07-15T19:04:38.466Z,26.89
2018-07-15T19:07:08.325Z,26.55
2018-07-15T19:09:38.822Z,26.31
2018-07-15T19:12:08.694Z,26.01
2018-07-15T19:14:38.612Z,25.49
2018-07-15T19:17:08.800Z,25.25
2018-07-15T19:19:38.485Z,24.81
2018-07-15T19:22:08.024Z,24.54
2018-07-15T19:24:38.413Z,24.39
2018-07-15T19:27:07.765Z,24.27
2018-07-15T19:29:39.117Z,24.08
2018-07-15T19:32:09.662Z,23.87
2018-07-15T19:34:40.969Z,23.74
2018-07-15T19:37:11.709Z,23.56
2018-07-15T19:39:42.005Z,23.50
2018-07-15T19:42:11.782Z,23.41
2018-07-15T19:44:41.131Z,23.51
2018-07-15T19:47:12.230Z,23.36
2018-07-15T19:49:41.514Z,23.21
2018-07-15T19:52:11.412Z,23.08
2018-07-15T19:54:40.734Z,23.07
2018-07-15T19:57:10.328Z,23.05
2018-07-15T19:59:40.556Z,22.96
2018-07-15T20:02:10.271Z,22.92
2018-07-15T20:04:39.754Z,22.83
2018-07-15T20:07:09.462Z,22.78
2018-07-15T20:09:39.216Z,22.72
2018-07-15T20:12:08.999Z,22.74
2018-07-15T20:14:38.499Z,22.68
2018-07-15T20:17:08.196Z,22.59
2018-07-15T20:19:39.161Z,22.61
2018-07-15T20:22:09.439Z,22.60
2018-07-15T20:24:39.807Z,22.46
2018-07-15T20:27:09.718Z,22.41
2018-07-15T20:29:39.459Z,22.28
2018-07-15T20:32:09.147Z,22.14
2018-07-15T20:34:39.109Z,21.96
2018-07-15T20:37:08.691Z,21.82
2018-07-15T20:39:38.466Z,21.69
2018-07-15T20:42:08.832Z,21.50
2018-07-15T20:44:38.727Z,21.36
2018-07-15T20:47:08.691Z,21.27
2018-07-15T20:49:38.360Z,21.25
2018-07-15T20:52:08.006Z,21.13
2018-07-15T20:54:37.735Z,21.18
2018-07-15T20:57:08.074Z,21.25
2018-07-15T20:59:37.985Z,21.02
2018-07-15T21:02:07.891Z,20.74
2018-07-15T21:04:39.050Z,20.56
2018-07-15T21:07:09.095Z,20.31
2018-07-15T21:09:38.610Z,20.30
2018-07-15T21:12:09.408Z,20.29
2018-07-15T21:14:38.857Z,20.21
2018-07-15T21:17:08.826Z,20.17
2018-07-15T21:19:39.774Z,20.12
2018-07-15T21:22:09.696Z,20.18
2018-07-15T21:24:39.599Z,20.17
2018-07-15T21:27:10.232Z,20.12
2018-07-15T21:29:40.073Z,20.09
2018-07-15T21:32:10.237Z,20.05
2018-07-15T21:34:40.701Z,20.00
2018-07-15T21:37:10.957Z,20.01
2018-07-15T21:39:40.851Z,19.97
2018-07-15T21:42:11.052Z,19.96
2018-07-15T21:44:40.932Z,19.94
2018-07-15T21:47:10.950Z,19.89
2018-07-15T21:49:40.686Z,19.78
2018-07-15T21:52:10.762Z,19.78
2018-07-15T21:54:40.461Z,19.77
2018-07-15T21:57:10.639Z,19.79
2018-07-15T21:59:42.751Z,19.78
2018-07-15T22:02:14.108Z,19.71
2018-07-15T22:04:43.765Z,19.76
2018-07-15T22:07:24.324Z,19.71
2018-07-15T22:10:10.923Z,19.71
2018-07-15T22:12:42.071Z,19.65
2018-07-15T22:15:11.862Z,19.60
2018-07-15T22:17:42.231Z,19.59
2018-07-15T22:20:12.082Z,19.55
2018-07-15T22:22:42.114Z,19.54
2018-07-15T22:25:11.394Z,19.51
2018-07-15T22:27:41.552Z,19.58
2018-07-15T22:30:11.222Z,19.62
2018-07-15T22:32:42.315Z,19.60
2018-07-15T22:35:11.869Z,19.58
2018-07-15T22:37:41.889Z,19.58
2018-07-15T22:40:11.495Z,19.69
2018-07-15T22:42:41.161Z,19.80
2018-07-15T22:45:10.878Z,19.82
2018-07-15T22:47:41.717Z,19.79
2018-07-15T22:50:11.918Z,19.81
2018-07-15T22:52:41.793Z,19.63
2018-07-15T22:55:13.613Z,19.37
2018-07-15T22:57:43.212Z,19.06
2018-07-15T23:00:12.863Z,18.96
2018-07-15T23:02:43.237Z,19.06
2018-07-15T23:05:33.737Z,19.09
2018-07-15T23:08:03.745Z,19.09
2018-07-15T23:10:33.307Z,19.09
2018-07-15T23:13:04.718Z,18.91
2018-07-15T23:15:34.733Z,18.79
2018-07-15T23:18:04.286Z,18.70
2018-07-15T23:20:35.320Z,18.63
2018-07-15T23:23:06.187Z,18.63
2018-07-15T23:25:37.062Z,18.67
2018-07-15T23:28:07.925Z,18.61
2018-07-15T23:30:38.778Z,18.54
2018-07-15T23:33:08.694Z,18.49
2018-07-15T23:35:38.296Z,18.50
2018-07-15T23:38:07.993Z,18.49
2018-07-15T23:40:38.065Z,18.40
2018-07-15T23:43:08.168Z,18.34
2018-07-15T23:45:38.235Z,18.30
2018-07-15T23:48:07.892Z,18.25
2018-07-15T23:50:37.588Z,18.24
2018-07-15T23:53:08.031Z,18.16
2018-07-15T23:55:37.747Z,17.99
2018-07-15T23:58:07.194Z,17.82
